Latest Weather Observations for Loxton

IDS60801

Issued at 8:01 pm CST Wednesday 28 June 2017 (issued every 30 minutes, with the page automatically refreshed every 10 minutes)

About weather observations | Map of weather stations | Latest weather observations for SA | Other Formats
Station Details ID: 024024 Name: LOXTON RESEARCH CENTRE Lat: -34.44 Lon: 140.60 Height: 30.1 m
Data from the previous 72 hours. | See also: Recent months at Loxton
Date/Time
CST
Temp
°C
App
Temp
°C
Dew
Point
°C
Rel
Hum
%
Delta-T
°C
Wind Press
QNH
hPa
Press
MSL
hPa
Rain since
9am
mm
Dir  Spd
km/h
Gust
km/h
Spd
kts
Gust
kts
28/08:00pm 11.8 9.5 5.8 66 2.8 SSW 7 11 4 6 1023.3 1023.3 0.0
28/07:30pm 10.9 8.7 5.2 68 2.6 E 6 7 3 4 1022.8 1022.8 0.0
28/07:00pm 10.0 9.1 6.1 77 1.8 CALM 0 0 0 0 1022.6 1022.6 0.0
28/06:30pm 9.8 8.6 4.4 69 2.4 CALM 0 0 0 0 1022.3 1022.3 0.0
28/06:00pm 10.1 9.0 5.2 71 2.2 CALM 0 0 0 0 1022.0 1022.0 0.0
28/05:30pm 12.0 11.2 6.5 69 2.6 CALM 0 0 0 0 1021.9 1021.9 0.0
28/05:00pm 14.1 12.5 6.4 60 3.7 NNW 4 6 2 3 1021.7 1021.7 0.0
28/04:30pm 16.4 13.9 3.6 42 5.9 N 6 9 3 5 1021.5 1021.5 0.0
28/04:00pm 17.1 15.0 3.7 41 6.2 NNW 4 9 2 5 1021.4 1021.4 0.0
28/03:30pm 17.0 14.3 3.6 41 6.2 NNE 7 15 4 8 1021.3 1021.3 0.0
28/03:00pm 16.8 14.2 3.3 40 6.2 WNW 6 9 3 5 1021.3 1021.3 0.0
28/02:30pm 17.2 14.1 3.6 40 6.3 WNW 9 13 5 7 1021.3 1021.3 0.0
28/02:00pm 16.5 13.4 3.7 42 5.9 NNW 9 15 5 8 1021.6 1021.6 0.0
28/01:30pm 16.6 13.4 3.3 41 6.1 NW 9 13 5 7 1021.8 1021.8 0.0
28/01:00pm 17.4 14.8 4.2 41 6.2 NNW 7 15 4 8 1022.0 1022.0 0.0
28/12:30pm 16.5 13.6 4.6 45 5.6 N 9 13 5 7 1022.3 1022.3 0.0
28/12:00pm 15.7 12.8 4.8 48 5.1 NNW 9 15 5 8 1022.8 1022.8 0.0
28/11:30am 15.2 12.0 5.0 50 4.8 N 11 20 6 11 1023.4 1023.4 0.0
28/11:00am 14.1 11.5 5.9 57 3.9 NNW 9 13 5 7 1023.9 1023.9 0.0
28/10:30am 12.6 10.0 6.2 65 3.0 WNW 9 11 5 6 1024.2 1024.2 0.0
28/10:00am 11.1 8.5 6.2 72 2.3 WNW 9 13 5 7 1024.2 1024.2 0.0
28/09:30am 10.1 7.6 6.4 78 1.7 N 9 11 5 6 1024.1 1024.1 0.0
28/09:00am 8.5 6.4 5.8 83 1.2 N 6 7 3 4 1024.1 1024.1 0.0
28/08:30am 4.5 3.0 3.0 90 0.6 CALM 0 0 0 0 1024.0 1024.0 0.0
28/08:00am 2.5 0.8 1.7 94 0.3 CALM 0 0 0 0 1023.8 1023.8 0.0
28/07:30am 2.3 0.5 1.5 94 0.3 CALM 0 0 0 0 1023.6 1023.6 0.0
28/07:00am 2.3 0.6 2.0 98 0.1 CALM 0 0 0 0 1023.4 1023.4 0.0
28/06:30am 2.7 0.3 1.9 94 0.3 ENE 4 9 2 5 1023.1 1023.1 0.0
28/06:00am 3.2 1.6 2.7 96 0.2 CALM 0 0 0 0 1022.8 1022.8 0.0
28/05:30am 3.6 2.1 2.9 95 0.3 CALM 0 0 0 0 1022.5 1022.5 0.0
28/05:00am 3.7 2.1 2.7 93 0.4 CALM 0 0 0 0 1022.3 1022.3 0.0
28/04:30am 4.1 2.6 2.9 92 0.5 CALM 0 0 0 0 1022.5 1022.5 0.0
28/04:00am 4.2 2.7 3.2 93 0.4 CALM 0 0 0 0 1022.6 1022.6 0.0
28/03:30am 4.1 2.6 2.9 92 0.5 CALM 0 0 0 0 1022.8 1022.8 0.0
28/03:00am 3.9 2.3 2.7 92 0.5 CALM 0 0 0 0 1022.9 1022.9 0.0
28/02:30am 4.5 3.0 3.0 90 0.6 CALM 0 0 0 0 1023.1 1023.1 0.0
28/02:00am 4.8 3.4 3.3 90 0.6 CALM 0 0 0 0 1023.2 1023.2 0.0
28/01:30am 5.3 4.0 4.1 92 0.5 CALM 0 0 0 0 1023.1 1023.1 0.0
28/01:00am 6.6 4.8 5.5 93 0.5 N 4 6 2 3 1023.0 1023.0 0.0
28/12:30am 7.5 5.3 5.5 87 0.9 N 6 7 3 4 1023.2 1023.2 0.0
28/12:00am 8.8 6.1 5.7 81 1.4 N 9 11 5 6 1023.3 1023.3 0.0
 
Date/Time
CST
Temp
°C
App
Temp
°C
Dew
Point
°C
Rel
Hum
%
Delta-T
°C
Wind Press
QNH
hPa
Press
MSL
hPa
Rain since
9am
mm
Dir  Spd
km/h
Gust
km/h
Spd
kts
Gust
kts
27/11:30pm 6.9 4.6 4.8 86 0.9 NNW 6 9 3 5 1023.6 1023.6 0.0
27/11:00pm 6.3 5.1 4.7 89 0.7 CALM 0 0 0 0 1023.5 1023.5 0.0
27/10:30pm 5.9 4.6 4.3 89 0.7 CALM 0 0 0 0 1023.4 1023.4 0.0
27/10:00pm 6.0 4.8 4.6 91 0.6 CALM 0 4 0 2 1023.3 1023.3 0.0
27/09:30pm 6.5 4.5 4.4 86 0.9 NNE 4 9 2 5 1023.6 1023.6 0.0
27/09:00pm 8.3 6.2 5.9 85 1.1 NNE 6 7 3 4 1023.5 1023.5 0.0
27/08:30pm 10.0 7.4 6.3 78 1.7 N 9 11 5 6 1023.6 1023.6 0.0
27/08:00pm 9.0 6.6 5.4 78 1.6 NNE 7 11 4 6 1023.6 1023.6 0.0
27/07:30pm 7.4 4.9 4.6 82 1.2 NNE 7 9 4 5 1023.4 1023.4 0.0
27/07:00pm 7.9 6.8 5.2 83 1.2 CALM 0 0 0 0 1023.3 1023.3 0.0
27/06:30pm 9.2 8.5 6.8 85 1.1 CALM 0 0 0 0 1023.0 1023.0 0.0
27/06:00pm 10.4 9.4 5.6 72 2.2 CALM 0 0 0 0 1022.5 1022.5 0.0
27/05:30pm 12.3 10.5 7.1 70 2.5 N 6 6 3 3 1022.4 1022.4 0.0
27/05:00pm 14.1 11.8 5.6 56 4.0 N 7 11 4 6 1022.4 1022.4 0.0
27/04:30pm 14.7 11.9 5.1 52 4.5 NNW 9 17 5 9 1022.5 1022.5 0.0
27/04:00pm 14.9 11.8 5.4 53 4.5 NNW 11 15 6 8 1022.5 1022.5 0.0
27/03:30pm 14.9 11.6 4.5 49 4.8 NW 11 17 6 9 1022.6 1022.6 0.0
27/03:00pm 15.1 12.0 5.4 52 4.6 NNW 11 17 6 9 1022.5 1022.5 0.0
27/02:30pm 15.1 11.6 5.4 52 4.6 NNW 13 19 7 10 1022.4 1022.4 0.0
27/02:00pm 15.5 12.0 5.6 51 4.7 NNW 13 19 7 10 1022.7 1022.7 0.0
27/01:30pm 15.3 11.3 5.1 50 4.8 NNW 15 20 8 11 1023.1 1023.1 0.0
27/01:00pm 15.2 10.9 5.2 51 4.7 NW 17 24 9 13 1023.3 1023.3 0.0
27/12:30pm 14.8 11.7 5.5 53 4.4 NW 11 20 6 11 1023.8 1023.8 0.0
27/12:00pm 14.2 11.1 5.7 56 4.0 NNW 11 15 6 8 1024.2 1024.2 0.0
27/11:30am 13.5 10.1 5.9 60 3.6 NNW 13 17 7 9 1024.5 1024.5 0.0
27/11:00am 12.6 10.0 6.2 65 3.0 N 9 13 5 7 1025.1 1025.1 0.0
27/10:30am 12.2 8.8 6.0 66 2.9 N 13 17 7 9 1025.3 1025.3 0.0
27/10:00am 12.3 9.3 5.9 65 3.0 N 11 17 6 9 1025.4 1025.4 0.0
27/09:30am 11.1 9.2 6.6 74 2.1 NNE 6 9 3 5 1025.4 1025.4 0.0
27/09:00am 10.0 9.4 7.2 83 1.3 CALM 0 0 0 0 1025.3 1025.3 0.0
27/08:30am 9.5 8.9 7.4 87 1.0 CALM 0 0 0 0 1025.1 1025.1 0.0
27/08:00am 9.0 8.4 7.3 89 0.8 CALM 0 0 0 0 1025.0 1025.0 0.0
27/07:30am 8.9 7.2 7.4 90 0.7 ENE 6 7 3 4 1024.7 1024.7 0.0
27/07:00am 9.2 7.2 7.3 88 0.9 ENE 7 9 4 5 1024.5 1024.5 0.0
27/06:30am 8.8 8.2 7.3 90 0.7 CALM 0 0 0 0 1024.4 1024.4 0.0
27/06:00am 8.8 7.3 6.9 88 0.9 E 4 9 2 5 1024.2 1024.2 0.0
27/05:30am 9.5 8.6 7.6 88 0.9 ENE 2 6 1 3 1024.0 1024.0 0.0
27/05:00am 9.9 8.0 7.4 84 1.2 E 7 9 4 5 1024.1 1024.1 0.0
27/04:30am 10.0 8.1 7.5 84 1.2 E 7 9 4 5 1024.1 1024.1 0.0
27/04:00am 10.3 9.7 7.6 83 1.3 CALM 0 0 0 0 1024.2 1024.2 0.0
27/03:30am 10.6 8.7 7.5 81 1.5 ESE 7 9 4 5 1024.4 1024.4 0.0
27/03:00am 10.9 9.3 7.8 81 1.5 ENE 6 9 3 5 1024.4 1024.4 0.0
27/02:30am 11.0 9.1 7.4 78 1.7 ENE 7 9 4 5 1024.6 1024.6 0.0
27/02:00am 11.0 8.7 7.4 78 1.7 NE 9 15 5 8 1024.4 1024.4 0.0
27/01:30am 10.9 8.6 7.3 78 1.7 ENE 9 13 5 7 1024.5 1024.5 0.0
27/01:00am 10.4 8.4 7.2 80 1.5 ENE 7 9 4 5 1024.5 1024.5 0.0
27/12:30am 10.1 9.4 7.1 81 1.4 CALM 0 7 0 4 1025.0 1025.0 0.0
27/12:00am 10.2 9.6 7.2 82 1.4 CALM 0 0 0 0 1025.3 1025.3 0.0
 
Date/Time
CST
Temp
°C
App
Temp
°C
Dew
Point
°C
Rel
Hum
%
Delta-T
°C
Wind Press
QNH
hPa
Press
MSL
hPa
Rain since
9am
mm
Dir  Spd
km/h
Gust
km/h
Spd
kts
Gust
kts
26/11:30pm 10.8 10.3 7.9 82 1.4 CALM 0 0 0 0 1025.5 1025.5 0.0
26/11:00pm 11.1 10.5 7.3 77 1.8 CALM 0 0 0 0 1025.7 1025.7 0.0
26/10:30pm 11.7 9.7 6.9 72 2.3 NE 7 9 4 5 1025.8 1025.8 0.0
26/10:00pm 11.6 9.8 7.2 74 2.1 ESE 6 9 3 5 1025.7 1025.7 0.0
26/09:30pm 11.8 10.1 7.4 74 2.1 SE 6 9 3 5 1025.6 1025.6 0.0
26/09:00pm 11.9 9.2 7.3 73 2.2 SE 11 13 6 7 1025.9 1025.9 0.0
26/08:30pm 12.1 9.0 7.3 72 2.3 ESE 13 15 7 8 1025.7 1025.7 0.0
26/08:00pm 12.4 10.2 7.7 73 2.3 ESE 9 11 5 6 1025.7 1025.7 0.0
26/07:30pm 12.6 9.9 7.4 70 2.5 SE 11 13 6 7 1025.4 1025.4 0.0
26/07:00pm 12.3 10.5 8.0 75 2.1 S 7 9 4 5 1025.3 1025.3 0.0
26/06:30pm 12.6 10.9 7.7 72 2.4 S 6 7 3 4 1025.0 1025.0 0.0
26/06:00pm 12.9 11.7 8.0 72 2.4 S 4 9 2 5 1024.7 1024.7 0.0
26/05:30pm 13.4 13.0 8.1 70 2.6 CALM 0 0 0 0 1024.4 1024.4 0.0
26/05:00pm 13.8 13.4 8.4 70 2.7 CALM 0 0 0 0 1024.4 1024.4 0.0
26/04:30pm 14.3 12.0 7.4 63 3.4 SW 9 13 5 7 1024.3 1024.3 0.0
26/04:00pm 14.9 14.3 7.6 61 3.6 CALM 0 0 0 0 1024.4 1024.4 0.0
26/03:30pm 15.1 13.8 7.6 61 3.7 NW 4 7 2 4 1024.4 1024.4 0.0
26/03:00pm 14.9 13.0 6.9 58 3.9 NNW 6 7 3 4 1024.3 1024.3 0.0
26/02:30pm 15.0 13.9 7.0 59 3.9 WNW 2 7 1 4 1024.3 1024.3 0.0
26/02:00pm 15.0 13.6 7.3 60 3.8 WNW 4 13 2 7 1024.4 1024.4 0.0
26/01:30pm 15.1 13.8 7.6 61 3.7 SE 4 11 2 6 1024.5 1024.5 0.0
26/01:00pm 14.5 12.9 7.8 64 3.3 S 6 11 3 6 1024.6 1024.6 0.0
26/12:30pm 14.4 12.3 8.2 66 3.1 S 9 13 5 7 1024.7 1024.7 0.0
26/12:00pm 13.9 11.1 8.5 70 2.7 SSE 13 17 7 9 1025.1 1025.1 0.0
26/11:30am 14.7 13.0 7.4 61 3.6 NW 6 13 3 7 1025.3 1025.3 0.0
26/11:00am 14.0 12.8 7.9 66 3.0 WNW 4 11 2 6 1025.6 1025.6 0.0
26/10:30am 12.3 10.6 8.2 76 2.0 WSW 7 11 4 6 1026.0 1026.0 0.0
26/10:00am 9.9 7.5 7.1 83 1.3 WNW 9 11 5 6 1026.1 1026.1 0.0
26/09:30am 8.1 5.9 6.3 88 0.8 W 7 9 4 5 1026.1 1026.1 0.0
26/09:00am 6.1 3.7 5.4 95 0.3 WNW 7 11 4 6 1025.8 1025.8 0.0
26/08:30am 5.5 3.0 4.8 95 0.3 WNW 7 9 4 5 1025.3 1025.3 0.0
26/08:00am 3.3 1.9 3.3 100 0.0 CALM 0 0 0 0 1024.9 1024.9 0.0
26/07:30am 3.5 1.7 3.5 100 0.0 W 2 7 1 4 1024.6 1024.6 0.0
26/07:00am 4.5 1.2 4.3 99 0.1 W 11 13 6 7 1024.3 1024.3 0.0
26/06:30am 4.5 1.5 4.3 99 0.1 W 9 11 5 6 1024.0 1024.0 0.0
26/06:00am 3.4 0.6 3.4 100 0.0 WNW 7 7 4 4 1023.8 1023.8 0.0
26/05:30am 5.5 2.3 5.0 97 0.2 WNW 11 13 6 7 1023.3 1023.3 0.0
26/05:00am 5.2 2.2 4.3 94 0.4 WNW 9 11 5 6 1023.2 1023.2 0.0
26/04:30am 1.9 -1.5 1.9 100 0.0 WNW 9 9 5 5 1023.0 1023.0 0.0
26/04:00am 5.6 2.7 4.9 95 0.3 NW 9 13 5 7 1023.0 1023.0 0.0
26/03:30am 2.0 -1.2 0.9 92 0.4 W 7 9 4 5 1022.8 1022.8 0.0
26/03:00am 2.6 -0.4 2.1 96 0.2 WNW 7 9 4 5 1022.8 1022.8 0.0
26/02:30am 4.0 2.6 3.5 97 0.2 CALM 0 0 0 0 1022.8 1022.8 0.0
26/02:00am 6.3 4.0 5.6 95 0.3 WNW 7 9 4 5 1022.7 1022.7 0.0
26/01:30am 7.0 4.0 6.1 94 0.4 WNW 11 13 6 7 1022.6 1022.6 0.0
26/01:00am 4.3 1.1 3.3 93 0.4 WNW 9 11 5 6 1022.6 1022.6 0.0
26/12:30am 3.6 2.0 2.3 91 0.5 CALM 0 0 0 0 1022.5 1022.5 0.0
26/12:00am 4.3 1.4 2.8 90 0.6 NW 7 9 4 5 1022.4 1022.4 0.0
 
Date/Time
CST
Temp
°C
App
Temp
°C
Dew
Point
°C
Rel
Hum
%
Delta-T
°C
Wind Press
QNH
hPa
Press
MSL
hPa
Rain since
9am
mm
Dir  Spd
km/h
Gust
km/h
Spd
kts
Gust
kts
25/11:30pm 5.3 2.6 3.6 89 0.7 WNW 7 7 4 4 1022.5 1022.5 0.0
25/11:00pm 6.1 3.7 4.5 89 0.7 WNW 6 7 3 4 1022.6 1022.6 0.0
25/10:30pm 5.4 3.9 3.0 84 1.0 CALM 0 0 0 0 1022.5 1022.5 0.0
25/10:00pm 6.5 5.2 4.2 85 1.0 CALM 0 0 0 0 1022.2 1022.2 0.0
25/09:30pm 6.7 5.4 3.9 82 1.2 CALM 0 0 0 0 1022.0 1022.0 0.0
25/09:00pm 6.1 4.4 4.2 88 0.8 SW 2 6 1 3 1021.8 1021.8 0.0
25/08:30pm 7.7 6.3 5.7 87 0.9 SW 2 6 1 3 1021.5 1021.5 0.0

Other Formats:

Comma delimited format used in spreadsheet applications
http://www.bom.gov.au/fwo/IDS60801/IDS60801.94682.axf

JavaScript Object Notation format (JSON) in row-major order
http://www.bom.gov.au/fwo/IDS60801/IDS60801.94682.json